Time;durP1;ratioP1;P1;durP2;ratioP2;P2;SDS_P1;SDS_P2;PMS_P1;PMS_P2;Temp;Humidity;BMP_temperature;BMP_pressure;BME280_temperature;BME280_humidity;BME280_pressure;Samples;Min_cycle;Max_cycle;Signal;HPM_P1;HPM_P2
2023/09/23 00:01:52;;;;;;;6.45;4.50;;;;;;;21.98;57.01;100774.88;5009815;28;20386;-68
2023/09/23 00:04:18;;;;;;;15.90;5.47;;;;;;;22.05;58.36;100772.72;4993314;28;20112;-68
2023/09/23 00:06:44;;;;;;;7.50;5.03;;;;;;;22.19;57.59;100775.41;5011360;28;20026;-68
2023/09/23 00:09:10;;;;;;;8.13;5.18;;;;;;;22.14;58.31;100773.00;5009169;28;20030;-68
2023/09/23 00:11:37;;;;;;;8.13;5.68;;;;;;;22.13;56.07;100775.78;4993833;28;20029;-68
2023/09/23 00:14:04;;;;;;;11.30;4.85;;;;;;;22.36;55.74;100774.44;4992872;28;20080;-68
2023/09/23 00:16:29;;;;;;;9.70;5.25;;;;;;;21.34;56.75;100756.34;5010321;28;20501;-69
2023/09/23 00:18:56;;;;;;;9.77;5.72;;;;;;;21.89;55.56;100752.34;4993113;28;20052;-69
2023/09/23 00:21:22;;;;;;;10.05;6.50;;;;;;;21.76;54.99;100762.84;4993369;28;20030;-68
2023/09/23 00:23:48;;;;;;;10.88;6.80;;;;;;;21.06;58.03;100757.91;4989457;28;20108;-69
2023/09/23 00:26:17;;;;;;;12.10;7.20;;;;;;;21.18;56.16;100764.31;4973501;28;20026;-69
2023/09/23 00:28:45;;;;;;;11.48;7.10;;;;;;;21.00;56.81;100758.22;4989982;28;20038;-68
2023/09/23 00:31:14;;;;;;;12.70;6.90;;;;;;;20.25;59.36;100768.34;4972834;28;20663;-68
2023/09/23 00:33:42;;;;;;;13.98;7.25;;;;;;;20.92;58.62;100760.44;4990060;28;20117;-68
2023/09/23 00:36:09;;;;;;;11.45;7.22;;;;;;;20.05;59.93;100762.28;4990599;28;20034;-68
2023/09/23 00:38:35;;;;;;;12.52;7.45;;;;;;;20.36;60.64;100773.09;4990656;28;20401;-68
2023/09/23 00:41:02;;;;;;;14.18;6.93;;;;;;;20.44;58.57;100769.13;4989326;28;20041;-68
2023/09/23 00:43:27;;;;;;;11.52;7.43;;;;;;;20.43;58.05;100778.03;4990153;28;20034;-68
2023/09/23 00:45:54;;;;;;;10.40;6.75;;;;;;;20.65;57.04;100779.56;4988663;28;20030;-68
2023/09/23 00:48:21;;;;;;;12.48;6.93;;;;;;;19.85;60.32;100779.19;4989415;28;20034;-68
2023/09/23 00:50:48;;;;;;;14.32;7.60;;;;;;;19.67;60.32;100775.63;4973422;28;20137;-68
2023/09/23 00:53:14;;;;;;;12.93;7.72;;;;;;;19.85;60.08;100788.94;4972189;28;20108;-68
2023/09/23 00:55:47;;;;;;;15.27;8.70;;;;;;;19.69;59.36;100789.69;4989622;28;20022;-68
2023/09/23 00:58:18;;;;;;;10.82;7.00;;;;;;;19.59;60.88;100788.38;4990461;28;20038;-68
2023/09/23 01:00:48;;;;;;;13.07;8.25;;;;;;;19.62;60.46;100788.25;4973246;28;20042;-68
2023/09/23 01:03:14;;;;;;;13.60;7.50;;;;;;;19.48;61.58;100794.19;4972800;28;20105;-68
2023/09/23 01:05:41;;;;;;;14.77;8.00;;;;;;;19.31;62.80;100802.97;4989882;28;20110;-68
2023/09/23 01:08:11;;;;;;;18.55;8.40;;;;;;;19.69;61.96;100802.94;4990280;28;20117;-69
2023/09/23 01:10:37;;;;;;;16.35;8.20;;;;;;;19.41;62.91;100806.91;4990142;28;20509;-68
2023/09/23 01:13:11;;;;;;;17.00;8.65;;;;;;;19.55;62.00;100819.50;4988149;28;20402;-68
2023/09/23 01:15:43;;;;;;;13.63;7.97;;;;;;;19.05;64.77;100826.22;4989243;28;20037;-68
2023/09/23 01:18:13;;;;;;;;;;;;;;;19.10;67.69;100813.63;4973028;28;20034;-68
2023/09/23 01:20:42;;;;;;;14.73;7.93;;;;;;;19.47;65.32;100817.22;4988619;28;19914;-68
2023/09/23 01:23:11;;;;;;;16.05;9.27;;;;;;;19.49;64.16;100825.09;4998582;28;20063;-68
2023/09/23 01:25:37;;;;;;;17.05;9.07;;;;;;;18.98;67.15;100830.94;5009854;28;20026;-68
2023/09/23 01:28:13;;;;;;;17.67;9.23;;;;;;;20.49;61.23;100822.81;4990926;28;20025;-68
2023/09/23 01:30:40;;;;;;;15.88;8.30;;;;;;;20.05;63.18;100812.69;5010021;28;20026;-68
2023/09/23 01:33:08;;;;;;;16.10;9.50;;;;;;;19.97;61.92;100822.81;4991686;28;20022;-68
2023/09/23 01:35:34;;;;;;;19.90;9.20;;;;;;;20.05;63.25;100818.00;4991331;28;20033;-68
2023/09/23 01:38:04;;;;;;;19.90;9.77;;;;;;;19.98;62.62;100819.25;4991455;28;20026;-68
2023/09/23 01:40:36;;;;;;;15.75;9.18;;;;;;;19.01;66.22;100816.69;5009136;28;20168;-68
2023/09/23 01:43:02;;;;;;;15.52;9.00;;;;;;;19.99;61.94;100818.31;5009622;28;20085;-68
2023/09/23 01:45:28;;;;;;;20.15;9.20;;;;;;;19.60;64.09;100811.31;4992283;28;20037;-68
2023/09/23 01:47:57;;;;;;;14.55;8.25;;;;;;;20.23;61.52;100804.75;4990734;28;20064;-68
2023/09/23 01:50:27;;;;;;;14.93;8.85;;;;;;;19.56;63.65;100810.59;5008115;28;20075;-68
2023/09/23 01:52:55;;;;;;;17.83;8.65;;;;;;;20.46;60.36;100806.22;4991576;28;20106;-68
2023/09/23 01:55:21;;;;;;;16.83;9.88;;;;;;;19.67;61.02;100808.31;4991326;28;20029;-68
2023/09/23 01:57:49;;;;;;;17.40;8.68;;;;;;;19.54;64.43;100816.94;4991934;28;20160;-68
2023/09/23 02:00:21;;;;;;;15.73;9.05;;;;;;;19.92;62.39;100817.75;5008998;28;20470;-68
2023/09/23 02:02:48;;;;;;;12.75;6.88;;;;;;;18.64;68.57;100820.97;5008964;28;20032;-69
2023/09/23 02:05:15;;;;;;;11.98;5.78;;;;;;;19.14;65.07;100819.66;5009434;28;20018;-68
2023/09/23 02:07:41;;;;;;;12.90;4.95;;;;;;;18.85;68.31;100823.59;4992032;28;20050;-68
2023/09/23 02:10:11;;;;;;;12.52;5.68;;;;;;;18.81;66.88;100826.38;5006652;28;20117;-68
2023/09/23 02:12:36;;;;;;;10.90;5.07;;;;;;;18.96;69.66;100824.03;4992058;28;20038;-68
2023/09/23 02:15:03;;;;;;;7.63;5.25;;;;;;;19.50;64.97;100822.34;5007674;28;20517;-68
2023/09/23 02:17:29;;;;;;;9.73;5.25;;;;;;;19.95;63.06;100828.19;5008904;28;20037;-68
2023/09/23 02:19:54;;;;;;;11.18;6.18;;;;;;;19.10;67.93;100845.41;4991342;28;20034;-68
2023/09/23 02:22:20;;;;;;;14.93;5.82;;;;;;;18.29;72.94;100852.47;5009270;28;20057;-68
2023/09/23 02:24:46;;;;;;;9.43;5.43;;;;;;;18.87;72.66;100845.56;5012415;28;20026;-69
2023/09/23 02:27:12;;;;;;;9.18;4.72;;;;;;;17.69;75.69;100837.19;4995236;28;20033;-68
2023/09/23 02:29:38;;;;;;;9.40;3.95;;;;;;;19.25;71.58;100833.25;4995649;28;20096;-69
2023/09/23 02:32:06;;;;;;;10.68;4.43;;;;;;;19.52;69.76;100845.28;5010864;28;20033;-70
2023/09/23 02:34:31;;;;;;;7.13;2.83;;;;;;;18.23;74.06;100847.41;4995178;28;20030;-69
2023/09/23 02:36:57;;;;;;;6.85;3.05;;;;;;;18.43;73.57;100850.06;4994336;28;20084;-69
2023/09/23 02:39:22;;;;;;;6.55;3.35;;;;;;;18.93;70.78;100854.13;4995358;28;20026;-69
2023/09/23 02:41:49;;;;;;;4.35;3.33;;;;;;;19.17;68.89;100855.75;5011752;28;20120;-68
2023/09/23 02:44:18;;;;;;;8.32;3.65;;;;;;;19.47;68.37;100854.31;5011570;28;20022;-69
2023/09/23 02:46:45;;;;;;;6.60;3.78;;;;;;;18.88;70.03;100857.94;5012995;28;20117;-69
2023/09/23 02:49:11;;;;;;;7.28;3.60;;;;;;;18.82;71.32;100856.34;4994678;28;20120;-69
2023/09/23 02:51:36;;;;;;;5.03;3.15;;;;;;;19.71;65.83;100846.13;4994327;28;20065;-68
2023/09/23 02:54:04;;;;;;;4.95;2.95;;;;;;;19.71;66.09;100850.59;5012235;28;20069;-68
2023/09/23 02:56:30;;;;;;;5.00;3.08;;;;;;;19.29;68.18;100855.19;5012693;28;20034;-68
2023/09/23 02:58:57;;;;;;;5.15;2.70;;;;;;;18.79;69.76;100857.38;4993961;28;20044;-68
2023/09/23 03:01:22;;;;;;;4.63;2.95;;;;;;;18.92;71.51;100856.88;5011026;28;20417;-68
2023/09/23 03:03:49;;;;;;;5.55;3.13;;;;;;;19.18;70.16;100857.44;5012562;28;20076;-68
2023/09/23 03:06:16;;;;;;;6.95;4.45;;;;;;;18.92;69.73;100859.50;5010296;28;20026;-68
2023/09/23 03:08:47;;;;;;;6.72;4.00;;;;;;;19.27;68.15;100857.03;4995172;28;20055;-68
2023/09/23 03:11:17;;;;;;;7.63;3.72;;;;;;;19.01;68.81;100861.72;4994184;28;20029;-68
2023/09/23 03:13:43;;;;;;;6.28;3.70;;;;;;;18.32;73.12;100862.91;5011979;28;20427;-68
2023/09/23 03:16:12;;;;;;;10.90;3.85;;;;;;;19.54;67.71;100870.81;5011954;28;20052;-68
2023/09/23 03:21:22;;;;;;;9.52;4.13;;;;;;;19.14;70.21;100889.38;5012471;28;20104;-68
2023/09/23 03:23:48;;;;;;;9.85;4.28;;;;;;;19.21;68.79;100891.78;5012069;28;20042;-68
2023/09/23 03:26:17;;;;;;;8.37;4.50;;;;;;;18.37;74.63;100890.03;5010775;28;20032;-69
2023/09/23 03:28:43;;;;;;;7.53;4.22;;;;;;;18.38;74.88;100909.41;5012243;28;20474;-68
2023/09/23 03:31:08;;;;;;;8.93;4.93;;;;;;;19.33;70.12;100901.81;4993935;28;20227;-69
2023/09/23 03:33:35;;;;;;;7.88;3.97;;;;;;;19.97;68.54;100902.41;5011240;28;20076;-68
2023/09/23 03:36:01;;;;;;;9.75;5.32;;;;;;;19.47;70.78;100902.03;5011183;28;20033;-68
2023/09/23 03:38:28;;;;;;;8.68;4.70;;;;;;;19.44;72.63;100902.19;5010706;28;20034;-68
2023/09/23 03:40:59;;;;;;;9.30;4.28;;;;;;;19.59;70.66;100895.31;4993337;28;20022;-69
2023/09/23 03:43:25;;;;;;;9.30;4.53;;;;;;;19.85;69.22;100900.34;5010576;28;20029;-69
2023/09/23 03:45:52;;;;;;;9.35;4.70;;;;;;;19.11;72.12;100902.78;4993896;28;20034;-69
2023/09/23 03:48:18;;;;;;;8.30;4.68;;;;;;;19.62;71.71;100902.25;4993292;28;20050;-69
2023/09/23 03:50:44;;;;;;;8.18;4.10;;;;;;;20.34;67.19;100903.25;4993991;28;20045;-69
2023/09/23 03:53:12;;;;;;;8.90;4.72;;;;;;;20.49;66.50;100912.22;5011224;28;20422;-70
2023/09/23 03:55:38;;;;;;;11.18;4.90;;;;;;;20.13;67.14;100903.38;4993205;28;20041;-70
2023/09/23 03:58:04;;;;;;;9.02;4.57;;;;;;;19.91;68.28;100913.31;4993847;28;20044;-69
2023/09/23 04:00:33;;;;;;;11.73;5.05;;;;;;;19.46;69.69;100915.34;5011429;28;20542;-69
2023/09/23 04:02:59;;;;;;;10.80;4.68;;;;;;;20.16;68.40;100908.53;4993153;28;20451;-69
2023/09/23 04:05:26;;;;;;;5.95;4.57;;;;;;;19.50;70.53;100915.13;5011710;28;20114;-69
2023/09/23 04:07:52;;;;;;;9.15;4.85;;;;;;;20.96;62.73;100910.75;4993403;28;20026;-69
2023/09/23 04:10:23;;;;;;;7.63;4.22;;;;;;;19.24;69.51;100918.13;4992855;28;20037;-68
2023/09/23 04:12:49;;;;;;;6.75;3.75;;;;;;;19.25;69.90;100919.84;5010156;28;20080;-68
2023/09/23 04:15:15;;;;;;;6.63;3.42;;;;;;;19.69;68.53;100924.91;4992552;28;20474;-69
2023/09/23 04:17:40;;;;;;;9.85;4.40;;;;;;;19.61;69.04;100924.41;4993579;28;20022;-68
2023/09/23 04:20:10;;;;;;;7.38;3.53;;;;;;;19.54;67.02;100928.28;5010785;28;20034;-68
2023/09/23 04:22:37;;;;;;;5.43;3.00;;;;;;;19.46;68.08;100926.81;4992652;28;20049;-68
2023/09/23 04:25:06;;;;;;;3.63;2.75;;;;;;;19.62;66.43;100926.13;5010412;28;20026;-68
2023/09/23 04:27:36;;;;;;;9.15;4.57;;;;;;;19.76;66.18;100934.28;4993471;28;20112;-68
2023/09/23 04:30:09;;;;;;;5.07;2.92;;;;;;;19.32;66.91;100937.19;4992399;28;20038;-68
2023/09/23 04:32:38;;;;;;;3.50;2.33;;;;;;;19.52;68.11;100938.91;4993218;28;20502;-68
2023/09/23 04:35:05;;;;;;;3.00;2.33;;;;;;;19.40;67.81;100943.00;5010248;28;20528;-68
2023/09/23 04:37:30;;;;;;;4.95;3.22;;;;;;;19.84;65.22;100941.91;5010286;28;20021;-68
2023/09/23 04:39:57;;;;;;;4.05;2.80;;;;;;;19.56;66.74;100953.75;5010462;28;20413;-69
2023/09/23 04:42:22;;;;;;;7.47;3.28;;;;;;;19.33;69.17;100962.78;4993056;28;20492;-68
2023/09/23 04:44:48;;;;;;;5.55;3.13;;;;;;;19.95;65.19;100954.69;5009116;28;20026;-69
2023/09/23 04:47:14;;;;;;;5.35;2.67;;;;;;;19.87;67.13;100956.84;5009063;28;20375;-68
2023/09/23 04:49:40;;;;;;;8.75;3.45;;;;;;;19.46;69.88;100963.91;5009345;28;20434;-68
2023/09/23 04:52:06;;;;;;;9.57;3.60;;;;;;;19.33;69.59;100968.06;5009319;28;20497;-69
2023/09/23 04:54:31;;;;;;;8.95;4.22;;;;;;;19.07;69.53;100967.41;5010263;28;20034;-68
2023/09/23 04:56:57;;;;;;;6.78;3.10;;;;;;;19.25;68.93;100968.41;4992514;28;20040;-68
2023/09/23 04:59:22;;;;;;;4.35;2.90;;;;;;;19.36;68.93;100978.53;4992207;28;20069;-69
2023/09/23 05:01:48;;;;;;;5.80;3.65;;;;;;;18.99;70.82;100980.13;4992779;28;20021;-69
2023/09/23 05:04:13;;;;;;;5.55;3.40;;;;;;;19.21;68.77;100985.34;5009657;28;20466;-68
2023/09/23 05:06:38;;;;;;;5.80;3.13;;;;;;;19.08;71.04;100990.34;4991945;28;20025;-68
2023/09/23 05:09:04;;;;;;;10.82;3.22;;;;;;;19.00;70.11;100995.13;5008741;28;20037;-68
2023/09/23 05:11:30;;;;;;;4.95;3.42;;;;;;;19.07;70.51;100999.22;4991868;28;20092;-68
2023/09/23 05:13:55;;;;;;;4.72;2.75;;;;;;;19.40;67.90;100998.66;5009724;28;20048;-69
2023/09/23 05:16:22;;;;;;;7.40;3.70;;;;;;;19.04;68.53;101007.28;5010041;28;20032;-69
2023/09/23 05:18:49;;;;;;;6.93;3.50;;;;;;;19.56;66.16;101011.22;4991678;28;20034;-69
2023/09/23 05:21:18;;;;;;;9.30;3.60;;;;;;;19.33;68.08;101008.66;5008530;28;20021;-69
2023/09/23 05:23:48;;;;;;;9.90;4.10;;;;;;;19.45;68.77;101011.69;4989024;28;20050;-69
2023/09/23 05:26:15;;;;;;;6.78;4.30;;;;;;;19.57;67.80;101012.97;4989318;28;20463;-69
2023/09/23 05:28:41;;;;;;;18.73;5.03;;;;;;;19.55;68.13;101014.78;4972926;28;20022;-69
2023/09/23 05:31:06;;;;;;;7.53;4.18;;;;;;;19.36;68.87;101020.94;4972218;28;20037;-69
2023/09/23 05:33:32;;;;;;;8.85;4.13;;;;;;;19.15;68.31;101025.34;4972021;28;20501;-69
2023/09/23 05:35:57;;;;;;;9.25;4.72;;;;;;;19.45;68.64;101031.13;4972391;28;20034;-68
2023/09/23 05:38:23;;;;;;;11.90;4.10;;;;;;;19.21;67.99;101032.22;4972855;28;20018;-69
2023/09/23 05:40:51;;;;;;;10.15;4.13;;;;;;;19.68;65.92;101042.50;4989424;28;20482;-69
2023/09/23 05:43:17;;;;;;;9.27;3.72;;;;;;;19.43;67.67;101043.56;4972941;28;20597;-69
2023/09/23 05:45:43;;;;;;;8.93;3.40;;;;;;;19.57;68.03;101047.41;4989995;28;20022;-69
2023/09/23 05:48:09;;;;;;;6.47;3.42;;;;;;;18.43;73.41;101055.63;4971413;28;20030;-69
2023/09/23 05:50:36;;;;;;;4.40;3.15;;;;;;;18.58;70.94;101054.16;4972661;28;20506;-69
2023/09/23 05:53:01;;;;;;;4.45;2.70;;;;;;;19.83;66.03;101052.44;4971985;28;20029;-69
2023/09/23 05:55:28;;;;;;;9.70;2.83;;;;;;;18.93;71.22;101055.41;4972092;28;20117;-69
2023/09/23 05:57:53;;;;;;;6.57;2.78;;;;;;;18.91;70.85;101056.41;4991574;28;20022;-69
2023/09/23 06:00:19;;;;;;;7.15;3.30;;;;;;;19.50;67.62;101055.63;4976885;28;20029;-69
2023/09/23 06:02:45;;;;;;;7.50;2.80;;;;;;;19.78;67.18;101065.03;4993303;28;20105;-69
2023/09/23 06:05:11;;;;;;;7.93;2.85;;;;;;;19.52;68.36;101062.66;4993608;28;20546;-69
2023/09/23 06:07:37;;;;;;;8.98;3.33;;;;;;;18.61;74.22;101069.94;4976416;28;20089;-69
2023/09/23 06:10:04;;;;;;;8.90;2.58;;;;;;;19.47;69.35;101068.19;4975186;28;20026;-69
2023/09/23 06:12:30;;;;;;;6.32;2.75;;;;;;;19.49;70.63;101075.13;4976527;28;20022;-69
2023/09/23 06:15:00;;;;;;;4.32;2.38;;;;;;;19.34;71.60;101075.78;4975278;28;20029;-69
2023/09/23 06:17:29;;;;;;;5.05;2.53;;;;;;;19.64;68.43;101078.03;4976254;28;20026;-69
2023/09/23 06:19:59;;;;;;;3.75;1.90;;;;;;;19.71;70.04;101092.72;4975846;28;20030;-69
2023/09/23 06:22:25;;;;;;;7.05;3.05;;;;;;;18.78;75.20;101103.66;4993919;28;20069;-69
2023/09/23 06:24:52;;;;;;;2.88;2.13;;;;;;;19.72;73.19;101107.72;5013352;28;20561;-69
2023/09/23 06:27:18;;;;;;;4.93;2.50;;;;;;;19.82;70.58;101106.44;4995570;28;20026;-69
2023/09/23 06:29:44;;;;;;;13.10;3.42;;;;;;;19.19;72.59;101113.53;5012753;28;20037;-69
2023/09/23 06:32:09;;;;;;;3.53;2.33;;;;;;;20.75;67.23;101126.06;5012812;28;20362;-69
2023/09/23 06:34:35;;;;;;;4.03;2.08;;;;;;;19.96;68.66;101120.84;4995557;28;20034;-69
2023/09/23 06:37:00;;;;;;;7.28;2.15;;;;;;;20.31;68.68;101126.34;4994552;28;20026;-69
2023/09/23 06:39:26;;;;;;;6.80;2.30;;;;;;;19.66;70.46;101126.56;4995352;28;20025;-69
2023/09/23 06:41:51;;;;;;;4.35;2.13;;;;;;;20.19;70.22;101121.59;5012589;28;20398;-69
2023/09/23 06:44:17;;;;;;;5.25;1.75;;;;;;;20.31;69.34;101129.00;4994749;28;20034;-69
2023/09/23 06:46:42;;;;;;;9.32;2.70;;;;;;;19.77;70.79;101142.84;5013079;28;20467;-69
2023/09/23 06:49:08;;;;;;;3.58;2.30;;;;;;;20.69;68.67;101137.00;5012476;28;20458;-69
2023/09/23 06:51:33;;;;;;;3.53;2.22;;;;;;;21.45;63.99;101126.16;4994427;28;20021;-69
2023/09/23 06:53:58;;;;;;;2.20;1.30;;;;;;;22.51;59.43;101135.69;5012346;28;20064;-69
2023/09/23 06:56:24;;;;;;;3.92;1.70;;;;;;;22.29;58.22;101137.78;5011504;28;20018;-69
2023/09/23 06:58:49;;;;;;;3.42;1.58;;;;;;;21.30;61.16;101137.59;5012121;28;20449;-69
2023/09/23 07:01:14;;;;;;;11.15;2.10;;;;;;;21.23;63.62;101139.69;5012065;28;20034;-69
2023/09/23 07:03:40;;;;;;;3.65;1.33;;;;;;;21.68;60.93;101138.31;5013015;28;20032;-69
2023/09/23 07:06:06;;;;;;;3.83;1.40;;;;;;;19.79;68.96;101151.59;5010215;28;20018;-68
2023/09/23 07:08:31;;;;;;;2.55;1.50;;;;;;;21.04;63.80;101141.53;4994461;28;20101;-69
2023/09/23 07:10:56;;;;;;;1.25;1.10;;;;;;;21.22;64.64;101153.06;5010680;28;20042;-69
2023/09/23 07:13:22;;;;;;;5.93;2.10;;;;;;;20.67;68.31;101165.38;4993977;28;20557;-69
2023/09/23 07:15:47;;;;;;;4.32;1.20;;;;;;;20.10;68.68;101160.00;5011040;28;20022;-68
2023/09/23 07:18:14;;;;;;;2.78;1.30;;;;;;;19.86;74.22;101161.97;4993592;28;20014;-70
2023/09/23 07:20:39;;;;;;;3.72;1.88;;;;;;;20.53;68.11;101163.38;5011042;28;20026;-69
2023/09/23 07:23:05;;;;;;;5.82;1.63;;;;;;;21.24;65.28;101175.09;4993975;28;20129;-69
2023/09/23 07:25:38;;;;;;;7.00;1.55;;;;;;;20.09;70.26;101183.03;4993711;28;20539;-69
2023/09/23 07:28:06;;;;;;;6.80;1.55;;;;;;;21.57;62.60;101182.34;4994234;28;20429;-69
2023/09/23 07:30:36;;;;;;;2.47;1.23;;;;;;;21.38;64.32;101188.56;4994469;28;20529;-69
2023/09/23 07:33:02;;;;;;;5.18;1.45;;;;;;;21.61;62.70;101191.88;4993503;28;20037;-69
2023/09/23 07:35:32;;;;;;;3.85;1.33;;;;;;;20.94;65.82;101194.28;5011899;28;20540;-69
2023/09/23 07:37:59;;;;;;;3.20;1.13;;;;;;;20.91;68.25;101194.41;5010507;28;20030;-69
2023/09/23 07:40:28;;;;;;;2.80;1.05;;;;;;;21.23;64.75;101205.28;4993529;28;20029;-69
2023/09/23 07:42:54;;;;;;;4.38;1.60;;;;;;;21.89;62.80;101199.31;5011409;28;20471;-69
2023/09/23 07:45:20;;;;;;;5.07;1.58;;;;;;;21.81;62.51;101213.00;5010303;28;20104;-69
2023/09/23 07:47:45;;;;;;;4.90;1.20;;;;;;;20.66;66.22;101219.41;4993312;28;20021;-69
2023/09/23 07:50:11;;;;;;;1.98;1.40;;;;;;;20.87;66.44;101224.69;5009892;28;20034;-69
2023/09/23 07:52:37;;;;;;;5.85;1.58;;;;;;;20.15;71.76;101227.03;5010275;28;20049;-69
2023/09/23 07:55:02;;;;;;;5.55;1.50;;;;;;;20.54;68.31;101234.16;5010444;28;20034;-68
2023/09/23 07:57:28;;;;;;;1.75;0.98;;;;;;;21.59;63.46;101233.69;4993830;28;20026;-69
2023/09/23 07:59:54;;;;;;;3.92;1.75;;;;;;;20.50;70.21;101244.03;4993398;28;20479;-69
2023/09/23 08:02:19;;;;;;;1.95;0.90;;;;;;;21.66;65.73;101243.06;4993224;28;20029;-69
2023/09/23 08:04:44;;;;;;;6.03;1.95;;;;;;;22.03;63.92;101244.69;5011376;28;20034;-69
2023/09/23 08:07:11;;;;;;;2.88;1.30;;;;;;;20.80;69.67;101256.88;4993319;28;20034;-68
2023/09/23 08:09:37;;;;;;;4.18;1.10;;;;;;;21.83;63.86;101256.38;4993224;28;20075;-68
2023/09/23 08:12:02;;;;;;;3.85;1.55;;;;;;;20.40;73.23;101269.28;4993340;28;20030;-68
2023/09/23 08:14:27;;;;;;;3.00;1.10;;;;;;;21.25;67.55;101264.53;5009094;28;20079;-68
2023/09/23 08:16:53;;;;;;;5.40;2.08;;;;;;;21.71;65.50;101261.44;4993097;28;20034;-68
2023/09/23 08:19:18;;;;;;;5.40;1.50;;;;;;;20.89;70.92;101270.66;5009296;28;20017;-68
2023/09/23 08:21:45;;;;;;;5.13;1.63;;;;;;;20.98;71.70;101270.25;4992224;28;20554;-68
2023/09/23 08:24:11;;;;;;;1.85;1.17;;;;;;;21.90;67.73;101269.34;4992996;28;20060;-68
2023/09/23 08:26:36;;;;;;;5.40;1.60;;;;;;;21.79;66.60;101268.13;5011049;28;20029;-68
2023/09/23 08:29:02;;;;;;;2.30;1.45;;;;;;;22.73;61.74;101291.69;5009994;28;20034;-68
2023/09/23 08:31:28;;;;;;;4.60;1.50;;;;;;;22.47;65.47;101285.94;4993234;28;20478;-68
2023/09/23 08:33:53;;;;;;;2.72;1.48;;;;;;;22.57;65.31;101288.97;4992712;28;20037;-68
2023/09/23 08:36:19;;;;;;;4.20;1.73;;;;;;;22.75;62.27;101295.16;4992668;28;20026;-69
2023/09/23 08:38:45;;;;;;;12.30;3.03;;;;;;;21.95;65.80;101299.25;4993162;28;20509;-68
2023/09/23 08:41:14;;;;;;;4.00;1.60;;;;;;;22.78;64.12;101300.31;4992554;28;20631;-68
2023/09/23 08:43:42;;;;;;;2.35;1.77;;;;;;;22.49;64.38;101310.72;4992471;28;20018;-69
2023/09/23 08:46:11;;;;;;;1.77;1.27;;;;;;;22.07;64.16;101319.09;4992760;28;20437;-68
2023/09/23 08:48:38;;;;;;;2.22;1.60;;;;;;;21.19;65.81;101327.69;4993036;28;20034;-68
2023/09/23 08:51:06;;;;;;;4.03;1.33;;;;;;;22.75;61.82;101318.25;4991813;28;20116;-69
2023/09/23 08:53:38;;;;;;;4.18;1.70;;;;;;;22.22;61.32;101318.28;5010810;28;20029;-69
2023/09/23 08:56:05;;;;;;;2.13;1.60;;;;;;;22.55;62.58;101336.16;4992148;28;20414;-69
2023/09/23 08:58:31;;;;;;;4.35;1.80;;;;;;;22.03;63.56;101344.97;4992320;28;20032;-69
2023/09/23 09:00:56;;;;;;;3.05;1.60;;;;;;;23.72;57.97;101351.09;4992739;28;20026;-69
2023/09/23 09:03:22;;;;;;;3.90;1.23;;;;;;;23.12;57.32;101346.47;4992761;28;20409;-69
2023/09/23 09:05:52;;;;;;;1.10;1.00;;;;;;;22.77;56.14;101351.88;5009874;28;20036;-69
2023/09/23 09:08:18;;;;;;;2.55;1.00;;;;;;;23.36;54.66;101348.72;5010432;28;20040;-69
2023/09/23 09:10:44;;;;;;;2.63;0.90;;;;;;;23.03;56.81;101341.59;5008457;28;20650;-69
2023/09/23 09:13:10;;;;;;;4.53;1.00;;;;;;;23.01;56.48;101348.81;4992214;28;20030;-69
2023/09/23 09:15:37;;;;;;;3.58;1.70;;;;;;;22.39;55.82;101361.88;4992377;28;20371;-69
2023/09/23 09:18:03;;;;;;;4.15;1.08;;;;;;;22.52;55.76;101358.47;5007504;28;20263;-69
2023/09/23 09:20:29;;;;;;;4.18;0.93;;;;;;;21.38;56.00;101364.06;5010111;28;20069;-69
2023/09/23 09:22:55;;;;;;;0.70;0.70;;;;;;;21.81;56.87;101362.00;4988650;28;20494;-69
2023/09/23 09:25:21;;;;;;;2.38;0.60;;;;;;;22.02;55.86;101364.53;4972345;28;20121;-69
2023/09/23 09:27:47;;;;;;;2.50;0.63;;;;;;;22.72;54.63;101374.38;4990557;28;20041;-69
2023/09/23 09:30:13;;;;;;;1.73;0.73;;;;;;;22.26;54.76;101383.75;4972512;28;20049;-69
2023/09/23 09:32:44;;;;;;;2.80;1.48;;;;;;;23.30;51.70;101381.06;4988286;28;20475;-69
2023/09/23 09:35:15;;;;;;;0.55;0.55;;;;;;;22.93;54.06;101391.91;4989977;28;20030;-69
2023/09/23 09:37:45;;;;;;;0.85;0.85;;;;;;;22.25;55.18;101397.16;4990215;28;20026;-69
2023/09/23 09:40:17;;;;;;;2.38;0.70;;;;;;;22.91;53.40;101398.25;4989093;28;20306;-69
2023/09/23 09:42:54;;;;;;;1.27;0.60;;;;;;;21.75;56.44;101412.88;4972856;28;20030;-68
2023/09/23 09:45:23;;;;;;;0.75;0.68;;;;;;;22.16;57.33;101404.66;4972749;28;20026;-68
2023/09/23 09:47:53;;;;;;;2.30;0.45;;;;;;;22.11;57.06;101412.00;4988147;28;20114;-69
2023/09/23 09:50:19;;;;;;;0.55;0.50;;;;;;;22.63;56.06;101418.34;4990076;28;20049;-69
2023/09/23 09:52:45;;;;;;;0.35;0.35;;;;;;;21.91;56.59;101430.75;4990445;28;20058;-70
2023/09/23 09:55:18;;;;;;;1.05;0.32;;;;;;;21.46;58.88;101425.72;4988897;28;20170;-70
2023/09/23 09:57:44;;;;;;;;;;;;;;;21.78;58.88;101420.69;4990673;28;20026;-70
2023/09/23 10:00:15;;;;;;;1.40;0.52;;;;;;;22.27;58.35;101429.88;4988825;28;19956;-70
2023/09/23 10:02:43;;;;;;;3.20;0.57;;;;;;;22.06;59.10;101418.50;4988899;28;20034;-70
2023/09/23 10:05:17;;;;;;;2.30;1.13;;;;;;;22.67;56.85;101431.41;4972011;28;20402;-69
2023/09/23 10:07:55;;;;;;;3.55;0.88;;;;;;;22.92;57.07;101431.97;4972268;28;20053;-69
2023/09/23 10:10:31;;;;;;;0.80;0.80;;;;;;;21.60;61.65;101429.56;4972752;28;20053;-69
2023/09/23 10:13:18;;;;;;;3.03;0.90;;;;;;;22.20;60.85;101432.84;4972263;28;20065;-69
2023/09/23 10:15:44;;;;;;;3.75;1.10;;;;;;;21.95;61.06;101427.00;4987835;28;20109;-69
2023/09/23 10:18:16;;;;;;;0.90;0.90;;;;;;;22.59;59.32;101430.09;4988098;28;20036;-69
2023/09/23 10:20:48;;;;;;;1.20;1.00;;;;;;;21.79;62.32;101432.19;4972415;28;20445;-69
2023/09/23 10:23:16;;;;;;;0.93;0.90;;;;;;;22.81;60.06;101422.72;4976891;28;20149;-69
2023/09/23 10:25:45;;;;;;;2.00;1.10;;;;;;;23.64;58.11;101428.06;4989900;28;20297;-69
2023/09/23 10:28:31;;;;;;;3.55;1.13;;;;;;;23.44;60.38;101429.19;4988731;28;20034;-69
2023/09/23 10:31:03;;;;;;;3.78;0.95;;;;;;;22.71;59.84;101432.13;4971516;28;20038;-68
2023/09/23 10:33:30;;;;;;;3.92;0.95;;;;;;;22.46;62.08;101446.72;4972579;28;20030;-69
2023/09/23 10:35:59;;;;;;;5.65;1.20;;;;;;;23.66;58.15;101452.00;4987339;28;20018;-69
2023/09/23 10:38:27;;;;;;;3.03;1.10;;;;;;;22.37;61.52;101457.81;4972559;28;20022;-69
2023/09/23 10:40:54;;;;;;;1.10;1.00;;;;;;;22.65;60.50;101453.75;4972079;28;20034;-69
2023/09/23 10:43:24;;;;;;;1.35;1.00;;;;;;;22.22;61.19;101467.38;4990429;28;20058;-69
2023/09/23 10:45:52;;;;;;;2.00;0.80;;;;;;;21.60;61.91;101469.47;4991957;28;20045;-69
2023/09/23 10:48:17;;;;;;;2.05;1.02;;;;;;;22.64;60.04;101463.56;4976045;28;20033;-69
2023/09/23 10:50:47;;;;;;;2.15;0.65;;;;;;;22.14;60.06;101467.75;4991430;28;20387;-69
2023/09/23 10:53:13;;;;;;;2.70;0.68;;;;;;;22.38;57.84;101478.19;4993056;28;20069;-69
2023/09/23 10:55:39;;;;;;;2.15;0.40;;;;;;;22.49;55.71;101489.16;4993197;28;20057;-69
2023/09/23 10:58:06;;;;;;;1.20;0.60;;;;;;;22.48;56.52;101491.91;4974717;28;20564;-69
2023/09/23 11:00:33;;;;;;;0.63;0.57;;;;;;;23.53;54.68;101495.38;4993110;28;20775;-69
2023/09/23 11:03:09;;;;;;;3.97;0.43;;;;;;;21.24;58.16;101499.38;4975295;28;20033;-69
2023/09/23 11:05:38;;;;;;;0.95;0.43;;;;;;;21.61;58.55;101498.66;4993102;28;20089;-68
2023/09/23 11:08:15;;;;;;;2.65;0.68;;;;;;;22.02;56.36;101505.59;4975369;28;20034;-68
2023/09/23 11:10:44;;;;;;;2.25;0.47;;;;;;;22.19;55.66;101511.00;4992483;28;20022;-68
2023/09/23 11:13:11;;;;;;;0.65;0.65;;;;;;;21.47;57.54;101517.88;4992595;28;20483;-67
2023/09/23 11:15:41;;;;;;;0.98;0.60;;;;;;;21.67;57.69;101518.78;4991528;28;20383;-67
2023/09/23 11:18:08;;;;;;;0.98;0.60;;;;;;;22.80;56.31;101521.38;4990823;28;20340;-68
2023/09/23 11:20:37;;;;;;;1.02;0.30;;;;;;;22.63;56.93;101525.75;4991218;28;20022;-68
2023/09/23 11:23:05;;;;;;;1.13;0.60;;;;;;;22.39;58.13;101533.16;4982058;28;20447;-68
2023/09/23 11:25:35;;;;;;;2.58;0.52;;;;;;;23.50;54.95;101524.84;4993832;28;20064;-67
2023/09/23 11:28:01;;;;;;;2.80;0.50;;;;;;;22.25;55.64;101535.59;4994290;28;20036;-67